Terminal Aerodrome Forecast
Issued by NWS Cleveland, OH

Home | Current Version | Previous Version | Graphics & Text | Print | Product List | Glossary On
Versions: 1 2 3 4 5 6 7 8 9 10 11 12 13 14
621
FTUS41 KCLE 212338
TAFYNG
TAF
KYNG 212338Z 2200/2224 02006KT P6SM SCT100 BKN200
     FM220400 VRB03KT P6SM BKN200
     FM221400 05010KT P6SM SCT250=

USA.gov is the U.S. government's official web portal to all federal, state and local government web resources and services.